sensor_id;sensor_type;location;lat;lon;timestamp;P1;durP1;ratioP1;P2;durP2;ratioP2
5225;SDS011;2632;51.666;7.146;2022-12-18T00:01:47;87.50;;;31.13;;
5225;SDS011;2632;51.666;7.146;2022-12-18T00:04:21;82.33;;;30.23;;
5225;SDS011;2632;51.666;7.146;2022-12-18T00:06:50;80.07;;;29.03;;
5225;SDS011;2632;51.666;7.146;2022-12-18T00:09:17;86.93;;;29.50;;
5225;SDS011;2632;51.666;7.146;2022-12-18T00:11:43;71.90;;;26.67;;
5225;SDS011;2632;51.666;7.146;2022-12-18T00:14:11;80.03;;;28.37;;
5225;SDS011;2632;51.666;7.146;2022-12-18T00:16:39;86.43;;;30.10;;
5225;SDS011;2632;51.666;7.146;2022-12-18T00:19:06;71.33;;;28.87;;
5225;SDS011;2632;51.666;7.146;2022-12-18T00:21:33;85.77;;;29.67;;
5225;SDS011;2632;51.666;7.146;2022-12-18T00:24:00;75.93;;;28.40;;
5225;SDS011;2632;51.666;7.146;2022-12-18T00:26:30;64.93;;;27.70;;
5225;SDS011;2632;51.666;7.146;2022-12-18T00:28:58;68.50;;;27.23;;
5225;SDS011;2632;51.666;7.146;2022-12-18T00:31:40;79.73;;;29.30;;
5225;SDS011;2632;51.666;7.146;2022-12-18T00:34:09;80.97;;;31.63;;
5225;SDS011;2632;51.666;7.146;2022-12-18T00:36:39;75.30;;;27.40;;
5225;SDS011;2632;51.666;7.146;2022-12-18T00:39:07;63.03;;;23.57;;
5225;SDS011;2632;51.666;7.146;2022-12-18T00:41:35;60.77;;;23.83;;
5225;SDS011;2632;51.666;7.146;2022-12-18T00:44:20;51.50;;;22.00;;
5225;SDS011;2632;51.666;7.146;2022-12-18T00:46:47;69.37;;;25.50;;
5225;SDS011;2632;51.666;7.146;2022-12-18T00:49:15;73.90;;;26.93;;
5225;SDS011;2632;51.666;7.146;2022-12-18T00:51:44;65.57;;;24.80;;
5225;SDS011;2632;51.666;7.146;2022-12-18T00:54:11;68.20;;;24.60;;
5225;SDS011;2632;51.666;7.146;2022-12-18T00:56:38;69.40;;;26.50;;
5225;SDS011;2632;51.666;7.146;2022-12-18T00:59:14;63.30;;;24.00;;
5225;SDS011;2632;51.666;7.146;2022-12-18T01:01:42;65.53;;;26.30;;
5225;SDS011;2632;51.666;7.146;2022-12-18T01:04:09;81.07;;;28.93;;
5225;SDS011;2632;51.666;7.146;2022-12-18T01:06:35;75.93;;;31.63;;
5225;SDS011;2632;51.666;7.146;2022-12-18T01:09:02;64.73;;;27.97;;
5225;SDS011;2632;51.666;7.146;2022-12-18T01:11:29;73.73;;;30.80;;
5225;SDS011;2632;51.666;7.146;2022-12-18T01:13:59;81.50;;;30.20;;
5225;SDS011;2632;51.666;7.146;2022-12-18T01:16:26;70.40;;;29.23;;
5225;SDS011;2632;51.666;7.146;2022-12-18T01:18:53;76.87;;;27.73;;
5225;SDS011;2632;51.666;7.146;2022-12-18T01:21:21;63.53;;;25.67;;
5225;SDS011;2632;51.666;7.146;2022-12-18T01:23:52;71.27;;;30.30;;
5225;SDS011;2632;51.666;7.146;2022-12-18T01:26:20;77.30;;;29.53;;
5225;SDS011;2632;51.666;7.146;2022-12-18T01:28:47;76.40;;;29.20;;
5225;SDS011;2632;51.666;7.146;2022-12-18T01:33:42;62.60;;;25.50;;
5225;SDS011;2632;51.666;7.146;2022-12-18T01:36:14;71.70;;;25.40;;
5225;SDS011;2632;51.666;7.146;2022-12-18T01:38:51;67.43;;;26.50;;
5225;SDS011;2632;51.666;7.146;2022-12-18T01:41:23;66.40;;;26.27;;
5225;SDS011;2632;51.666;7.146;2022-12-18T01:43:55;64.00;;;25.23;;
5225;SDS011;2632;51.666;7.146;2022-12-18T01:46:24;65.30;;;25.93;;
5225;SDS011;2632;51.666;7.146;2022-12-18T01:48:59;68.03;;;26.80;;
5225;SDS011;2632;51.666;7.146;2022-12-18T01:51:27;57.00;;;24.40;;
5225;SDS011;2632;51.666;7.146;2022-12-18T01:53:56;60.07;;;23.93;;
5225;SDS011;2632;51.666;7.146;2022-12-18T01:56:23;56.33;;;24.40;;
5225;SDS011;2632;51.666;7.146;2022-12-18T01:58:52;71.10;;;28.60;;
5225;SDS011;2632;51.666;7.146;2022-12-18T02:01:23;62.80;;;25.57;;
5225;SDS011;2632;51.666;7.146;2022-12-18T02:03:51;67.50;;;26.73;;
5225;SDS011;2632;51.666;7.146;2022-12-18T02:06:29;59.03;;;24.97;;
5225;SDS011;2632;51.666;7.146;2022-12-18T02:09:07;63.33;;;25.90;;
5225;SDS011;2632;51.666;7.146;2022-12-18T02:11:53;64.03;;;27.97;;
5225;SDS011;2632;51.666;7.146;2022-12-18T02:14:59;65.03;;;24.93;;
5225;SDS011;2632;51.666;7.146;2022-12-18T02:17:33;62.37;;;25.83;;
5225;SDS011;2632;51.666;7.146;2022-12-18T02:28:26;61.43;;;22.90;;
5225;SDS011;2632;51.666;7.146;2022-12-18T02:30:58;60.30;;;22.83;;
5225;SDS011;2632;51.666;7.146;2022-12-18T02:33:29;59.80;;;23.83;;
5225;SDS011;2632;51.666;7.146;2022-12-18T02:35:57;52.37;;;22.00;;
5225;SDS011;2632;51.666;7.146;2022-12-18T02:38:25;54.73;;;23.27;;
5225;SDS011;2632;51.666;7.146;2022-12-18T02:40:54;59.97;;;23.93;;
5225;SDS011;2632;51.666;7.146;2022-12-18T02:43:22;64.63;;;23.23;;
5225;SDS011;2632;51.666;7.146;2022-12-18T02:45:52;54.13;;;22.53;;
5225;SDS011;2632;51.666;7.146;2022-12-18T02:48:28;61.70;;;23.30;;
5225;SDS011;2632;51.666;7.146;2022-12-18T02:51:18;51.63;;;22.43;;
5225;SDS011;2632;51.666;7.146;2022-12-18T02:53:50;63.03;;;23.80;;
5225;SDS011;2632;51.666;7.146;2022-12-18T02:56:36;63.13;;;24.30;;
5225;SDS011;2632;51.666;7.146;2022-12-18T02:59:13;57.30;;;25.10;;
5225;SDS011;2632;51.666;7.146;2022-12-18T03:04:58;52.60;;;22.30;;
5225;SDS011;2632;51.666;7.146;2022-12-18T03:07:35;51.13;;;23.40;;
5225;SDS011;2632;51.666;7.146;2022-12-18T03:10:05;60.00;;;23.70;;
5225;SDS011;2632;51.666;7.146;2022-12-18T03:12:36;59.83;;;24.23;;
5225;SDS011;2632;51.666;7.146;2022-12-18T03:15:17;58.40;;;23.63;;
5225;SDS011;2632;51.666;7.146;2022-12-18T03:17:59;62.80;;;24.23;;
5225;SDS011;2632;51.666;7.146;2022-12-18T03:20:33;56.63;;;24.00;;
5225;SDS011;2632;51.666;7.146;2022-12-18T03:23:07;54.87;;;23.50;;
5225;SDS011;2632;51.666;7.146;2022-12-18T03:25:37;63.47;;;25.70;;
5225;SDS011;2632;51.666;7.146;2022-12-18T03:28:07;67.03;;;22.93;;
5225;SDS011;2632;51.666;7.146;2022-12-18T03:30:39;56.17;;;22.80;;
5225;SDS011;2632;51.666;7.146;2022-12-18T03:33:12;66.00;;;23.40;;
5225;SDS011;2632;51.666;7.146;2022-12-18T03:35:46;57.23;;;23.20;;
5225;SDS011;2632;51.666;7.146;2022-12-18T03:38:13;55.13;;;21.80;;
5225;SDS011;2632;51.666;7.146;2022-12-18T03:40:45;56.73;;;21.63;;
5225;SDS011;2632;51.666;7.146;2022-12-18T03:49:18;48.90;;;22.43;;
5225;SDS011;2632;51.666;7.146;2022-12-18T03:52:00;53.47;;;19.80;;
5225;SDS011;2632;51.666;7.146;2022-12-18T03:54:31;55.27;;;21.10;;
5225;SDS011;2632;51.666;7.146;2022-12-18T03:57:03;57.37;;;22.53;;
5225;SDS011;2632;51.666;7.146;2022-12-18T03:59:34;51.73;;;22.43;;
5225;SDS011;2632;51.666;7.146;2022-12-18T04:02:03;57.30;;;22.07;;
5225;SDS011;2632;51.666;7.146;2022-12-18T04:04:33;53.53;;;22.47;;
5225;SDS011;2632;51.666;7.146;2022-12-18T04:07:01;45.83;;;20.30;;
5225;SDS011;2632;51.666;7.146;2022-12-18T04:09:29;54.30;;;22.40;;
5225;SDS011;2632;51.666;7.146;2022-12-18T04:11:57;54.80;;;24.60;;
5225;SDS011;2632;51.666;7.146;2022-12-18T04:14:24;49.80;;;22.10;;
5225;SDS011;2632;51.666;7.146;2022-12-18T04:16:51;55.47;;;22.93;;
5225;SDS011;2632;51.666;7.146;2022-12-18T04:19:17;54.97;;;23.50;;
5225;SDS011;2632;51.666;7.146;2022-12-18T04:21:44;53.70;;;22.17;;
5225;SDS011;2632;51.666;7.146;2022-12-18T04:24:10;55.90;;;24.57;;
5225;SDS011;2632;51.666;7.146;2022-12-18T04:26:37;53.67;;;23.20;;
5225;SDS011;2632;51.666;7.146;2022-12-18T04:29:04;47.57;;;22.40;;
5225;SDS011;2632;51.666;7.146;2022-12-18T04:31:30;49.93;;;22.00;;
5225;SDS011;2632;51.666;7.146;2022-12-18T04:33:57;51.00;;;21.73;;
5225;SDS011;2632;51.666;7.146;2022-12-18T04:36:24;50.20;;;20.30;;
5225;SDS011;2632;51.666;7.146;2022-12-18T04:38:53;56.77;;;22.33;;
5225;SDS011;2632;51.666;7.146;2022-12-18T04:41:20;48.50;;;20.90;;
5225;SDS011;2632;51.666;7.146;2022-12-18T04:43:47;45.63;;;21.00;;
5225;SDS011;2632;51.666;7.146;2022-12-18T04:46:13;57.50;;;21.87;;
5225;SDS011;2632;51.666;7.146;2022-12-18T04:48:40;50.33;;;21.57;;
5225;SDS011;2632;51.666;7.146;2022-12-18T04:51:07;45.30;;;21.07;;
5225;SDS011;2632;51.666;7.146;2022-12-18T04:53:33;52.13;;;19.67;;
5225;SDS011;2632;51.666;7.146;2022-12-18T04:56:04;45.83;;;18.60;;
5225;SDS011;2632;51.666;7.146;2022-12-18T04:58:39;48.07;;;19.90;;
5225;SDS011;2632;51.666;7.146;2022-12-18T05:01:07;45.10;;;21.23;;
5225;SDS011;2632;51.666;7.146;2022-12-18T05:03:35;45.70;;;21.07;;
5225;SDS011;2632;51.666;7.146;2022-12-18T05:06:03;47.83;;;22.40;;
5225;SDS011;2632;51.666;7.146;2022-12-18T05:08:31;52.40;;;22.53;;
5225;SDS011;2632;51.666;7.146;2022-12-18T05:10:59;44.67;;;20.73;;
5225;SDS011;2632;51.666;7.146;2022-12-18T05:13:26;42.90;;;19.70;;
5225;SDS011;2632;51.666;7.146;2022-12-18T05:15:54;46.63;;;20.00;;
5225;SDS011;2632;51.666;7.146;2022-12-18T05:18:22;50.43;;;21.97;;
5225;SDS011;2632;51.666;7.146;2022-12-18T05:20:50;45.53;;;20.00;;
5225;SDS011;2632;51.666;7.146;2022-12-18T05:23:17;60.57;;;22.20;;
5225;SDS011;2632;51.666;7.146;2022-12-18T05:25:51;49.43;;;20.80;;
5225;SDS011;2632;51.666;7.146;2022-12-18T05:28:23;47.03;;;21.20;;
5225;SDS011;2632;51.666;7.146;2022-12-18T05:30:51;45.77;;;19.87;;
5225;SDS011;2632;51.666;7.146;2022-12-18T05:33:20;48.27;;;20.87;;
5225;SDS011;2632;51.666;7.146;2022-12-18T05:35:51;48.83;;;21.43;;
5225;SDS011;2632;51.666;7.146;2022-12-18T05:38:22;47.80;;;21.47;;
5225;SDS011;2632;51.666;7.146;2022-12-18T05:40:50;44.00;;;20.20;;
5225;SDS011;2632;51.666;7.146;2022-12-18T05:43:17;45.50;;;19.93;;
5225;SDS011;2632;51.666;7.146;2022-12-18T05:45:47;41.33;;;18.07;;
5225;SDS011;2632;51.666;7.146;2022-12-18T05:48:14;45.47;;;19.07;;
5225;SDS011;2632;51.666;7.146;2022-12-18T05:50:42;39.53;;;18.33;;
5225;SDS011;2632;51.666;7.146;2022-12-18T05:53:14;43.63;;;19.27;;
5225;SDS011;2632;51.666;7.146;2022-12-18T05:55:43;46.27;;;18.00;;
5225;SDS011;2632;51.666;7.146;2022-12-18T05:58:11;43.40;;;18.97;;
5225;SDS011;2632;51.666;7.146;2022-12-18T06:00:40;39.30;;;17.30;;
5225;SDS011;2632;51.666;7.146;2022-12-18T06:03:08;38.30;;;18.40;;
5225;SDS011;2632;51.666;7.146;2022-12-18T06:05:37;39.47;;;17.73;;
5225;SDS011;2632;51.666;7.146;2022-12-18T06:08:05;39.90;;;17.23;;
5225;SDS011;2632;51.666;7.146;2022-12-18T06:10:32;38.13;;;17.97;;
5225;SDS011;2632;51.666;7.146;2022-12-18T06:12:58;37.40;;;17.37;;
5225;SDS011;2632;51.666;7.146;2022-12-18T06:15:25;36.97;;;17.80;;
5225;SDS011;2632;51.666;7.146;2022-12-18T06:17:52;37.13;;;16.23;;
5225;SDS011;2632;51.666;7.146;2022-12-18T06:20:19;42.83;;;18.13;;
5225;SDS011;2632;51.666;7.146;2022-12-18T06:22:45;46.17;;;18.30;;
5225;SDS011;2632;51.666;7.146;2022-12-18T06:25:12;43.20;;;16.80;;
5225;SDS011;2632;51.666;7.146;2022-12-18T06:27:39;33.33;;;16.03;;
5225;SDS011;2632;51.666;7.146;2022-12-18T06:30:07;37.67;;;16.90;;
5225;SDS011;2632;51.666;7.146;2022-12-18T06:32:34;39.07;;;17.27;;
5225;SDS011;2632;51.666;7.146;2022-12-18T06:35:01;38.87;;;16.03;;
5225;SDS011;2632;51.666;7.146;2022-12-18T06:37:27;41.30;;;16.50;;
5225;SDS011;2632;51.666;7.146;2022-12-18T06:39:54;44.80;;;16.30;;
5225;SDS011;2632;51.666;7.146;2022-12-18T06:42:22;31.90;;;13.93;;
5225;SDS011;2632;51.666;7.146;2022-12-18T06:44:50;34.20;;;15.43;;
5225;SDS011;2632;51.666;7.146;2022-12-18T06:47:16;36.23;;;15.20;;
5225;SDS011;2632;51.666;7.146;2022-12-18T06:49:43;34.67;;;14.63;;
5225;SDS011;2632;51.666;7.146;2022-12-18T06:52:10;31.20;;;14.97;;
5225;SDS011;2632;51.666;7.146;2022-12-18T06:54:37;31.00;;;13.63;;
5225;SDS011;2632;51.666;7.146;2022-12-18T06:57:03;35.67;;;14.73;;
5225;SDS011;2632;51.666;7.146;2022-12-18T06:59:30;30.13;;;14.00;;
5225;SDS011;2632;51.666;7.146;2022-12-18T07:01:56;26.50;;;13.53;;
5225;SDS011;2632;51.666;7.146;2022-12-18T07:04:30;29.50;;;14.10;;
5225;SDS011;2632;51.666;7.146;2022-12-18T07:06:57;31.47;;;13.33;;
5225;SDS011;2632;51.666;7.146;2022-12-18T07:09:24;33.23;;;13.77;;
5225;SDS011;2632;51.666;7.146;2022-12-18T07:11:51;30.90;;;13.50;;
5225;SDS011;2632;51.666;7.146;2022-12-18T07:14:18;31.70;;;14.20;;
5225;SDS011;2632;51.666;7.146;2022-12-18T07:16:45;33.73;;;15.20;;
5225;SDS011;2632;51.666;7.146;2022-12-18T07:19:11;30.33;;;14.63;;
5225;SDS011;2632;51.666;7.146;2022-12-18T07:21:38;32.40;;;14.73;;
5225;SDS011;2632;51.666;7.146;2022-12-18T07:24:05;30.30;;;13.83;;
5225;SDS011;2632;51.666;7.146;2022-12-18T07:26:32;30.20;;;14.33;;
5225;SDS011;2632;51.666;7.146;2022-12-18T07:28:58;32.00;;;15.20;;
5225;SDS011;2632;51.666;7.146;2022-12-18T07:31:25;30.50;;;15.43;;
5225;SDS011;2632;51.666;7.146;2022-12-18T07:33:52;35.50;;;16.30;;
5225;SDS011;2632;51.666;7.146;2022-12-18T07:36:19;36.43;;;15.30;;
5225;SDS011;2632;51.666;7.146;2022-12-18T07:38:46;34.87;;;14.50;;
5225;SDS011;2632;51.666;7.146;2022-12-18T07:41:14;24.30;;;11.67;;
5225;SDS011;2632;51.666;7.146;2022-12-18T07:43:41;34.10;;;15.80;;
5225;SDS011;2632;51.666;7.146;2022-12-18T07:46:08;35.13;;;14.43;;
5225;SDS011;2632;51.666;7.146;2022-12-18T07:48:38;33.63;;;16.90;;
5225;SDS011;2632;51.666;7.146;2022-12-18T07:51:06;36.23;;;16.33;;
5225;SDS011;2632;51.666;7.146;2022-12-18T07:53:34;39.87;;;18.27;;
5225;SDS011;2632;51.666;7.146;2022-12-18T07:56:03;45.63;;;19.97;;
5225;SDS011;2632;51.666;7.146;2022-12-18T07:58:52;49.33;;;21.63;;
5225;SDS011;2632;51.666;7.146;2022-12-18T08:01:19;54.57;;;24.60;;
5225;SDS011;2632;51.666;7.146;2022-12-18T08:03:46;48.43;;;21.10;;
5225;SDS011;2632;51.666;7.146;2022-12-18T08:06:13;44.07;;;19.80;;
5225;SDS011;2632;51.666;7.146;2022-12-18T08:08:39;41.33;;;18.13;;
5225;SDS011;2632;51.666;7.146;2022-12-18T08:11:08;33.70;;;17.40;;
5225;SDS011;2632;51.666;7.146;2022-12-18T08:13:34;40.53;;;18.67;;
5225;SDS011;2632;51.666;7.146;2022-12-18T08:16:05;44.80;;;20.13;;
5225;SDS011;2632;51.666;7.146;2022-12-18T08:18:33;41.50;;;20.10;;
5225;SDS011;2632;51.666;7.146;2022-12-18T08:21:08;49.93;;;20.93;;
5225;SDS011;2632;51.666;7.146;2022-12-18T08:23:35;44.80;;;19.03;;
5225;SDS011;2632;51.666;7.146;2022-12-18T08:26:08;39.63;;;17.83;;
5225;SDS011;2632;51.666;7.146;2022-12-18T08:28:36;36.80;;;17.13;;
5225;SDS011;2632;51.666;7.146;2022-12-18T08:31:03;40.47;;;17.97;;
5225;SDS011;2632;51.666;7.146;2022-12-18T08:33:30;32.10;;;14.80;;
5225;SDS011;2632;51.666;7.146;2022-12-18T08:35:57;35.03;;;17.20;;
5225;SDS011;2632;51.666;7.146;2022-12-18T08:38:24;31.67;;;14.00;;
5225;SDS011;2632;51.666;7.146;2022-12-18T08:43:35;36.13;;;15.57;;
5225;SDS011;2632;51.666;7.146;2022-12-18T08:46:20;33.80;;;16.47;;
5225;SDS011;2632;51.666;7.146;2022-12-18T08:48:50;33.13;;;15.60;;
5225;SDS011;2632;51.666;7.146;2022-12-18T08:51:18;39.33;;;16.10;;
5225;SDS011;2632;51.666;7.146;2022-12-18T08:53:46;33.33;;;16.00;;
5225;SDS011;2632;51.666;7.146;2022-12-18T08:56:13;36.03;;;16.80;;
5225;SDS011;2632;51.666;7.146;2022-12-18T08:58:40;31.53;;;15.00;;
5225;SDS011;2632;51.666;7.146;2022-12-18T09:01:09;41.70;;;19.30;;
5225;SDS011;2632;51.666;7.146;2022-12-18T09:03:37;34.87;;;16.53;;
5225;SDS011;2632;51.666;7.146;2022-12-18T09:06:05;33.93;;;16.53;;
5225;SDS011;2632;51.666;7.146;2022-12-18T09:08:31;41.87;;;18.20;;
5225;SDS011;2632;51.666;7.146;2022-12-18T09:10:58;41.20;;;18.30;;
5225;SDS011;2632;51.666;7.146;2022-12-18T09:13:25;42.03;;;17.90;;
5225;SDS011;2632;51.666;7.146;2022-12-18T09:15:52;31.33;;;17.20;;
5225;SDS011;2632;51.666;7.146;2022-12-18T09:18:20;44.80;;;19.30;;
5225;SDS011;2632;51.666;7.146;2022-12-18T09:20:49;58.77;;;24.30;;
5225;SDS011;2632;51.666;7.146;2022-12-18T09:23:17;60.87;;;27.97;;
5225;SDS011;2632;51.666;7.146;2022-12-18T09:25:44;45.03;;;20.73;;
5225;SDS011;2632;51.666;7.146;2022-12-18T09:28:12;44.87;;;19.80;;
5225;SDS011;2632;51.666;7.146;2022-12-18T09:30:42;42.20;;;19.93;;
5225;SDS011;2632;51.666;7.146;2022-12-18T09:33:10;45.97;;;17.73;;
5225;SDS011;2632;51.666;7.146;2022-12-18T09:35:37;39.77;;;17.00;;
5225;SDS011;2632;51.666;7.146;2022-12-18T09:38:05;37.03;;;16.53;;
5225;SDS011;2632;51.666;7.146;2022-12-18T09:40:42;40.63;;;17.43;;
5225;SDS011;2632;51.666;7.146;2022-12-18T09:43:18;32.33;;;15.90;;
5225;SDS011;2632;51.666;7.146;2022-12-18T09:45:53;30.53;;;14.87;;
5225;SDS011;2632;51.666;7.146;2022-12-18T09:48:24;35.47;;;15.80;;
5225;SDS011;2632;51.666;7.146;2022-12-18T09:50:58;34.83;;;14.77;;
5225;SDS011;2632;51.666;7.146;2022-12-18T09:53:31;39.43;;;16.47;;
5225;SDS011;2632;51.666;7.146;2022-12-18T09:56:01;36.00;;;15.70;;
5225;SDS011;2632;51.666;7.146;2022-12-18T09:58:32;33.17;;;14.80;;
5225;SDS011;2632;51.666;7.146;2022-12-18T10:01:21;28.47;;;14.00;;
5225;SDS011;2632;51.666;7.146;2022-12-18T10:03:49;27.87;;;13.63;;
5225;SDS011;2632;51.666;7.146;2022-12-18T10:06:26;28.67;;;13.50;;
5225;SDS011;2632;51.666;7.146;2022-12-18T10:09:27;28.60;;;13.17;;
5225;SDS011;2632;51.666;7.146;2022-12-18T10:20:16;26.57;;;12.33;;
5225;SDS011;2632;51.666;7.146;2022-12-18T10:28:12;29.30;;;13.47;;
5225;SDS011;2632;51.666;7.146;2022-12-18T10:30:42;25.87;;;10.97;;
5225;SDS011;2632;51.666;7.146;2022-12-18T10:33:20;24.40;;;10.03;;
5225;SDS011;2632;51.666;7.146;2022-12-18T10:35:51;30.70;;;13.60;;
5225;SDS011;2632;51.666;7.146;2022-12-18T10:48:35;21.30;;;10.77;;
5225;SDS011;2632;51.666;7.146;2022-12-18T10:51:25;25.93;;;12.10;;
5225;SDS011;2632;51.666;7.146;2022-12-18T10:53:57;24.90;;;12.47;;
5225;SDS011;2632;51.666;7.146;2022-12-18T10:56:28;29.93;;;13.27;;
5225;SDS011;2632;51.666;7.146;2022-12-18T10:58:58;24.10;;;12.80;;
5225;SDS011;2632;51.666;7.146;2022-12-18T11:04:50;30.30;;;15.60;;
5225;SDS011;2632;51.666;7.146;2022-12-18T11:07:18;28.93;;;15.27;;
5225;SDS011;2632;51.666;7.146;2022-12-18T11:09:45;15.65;;;9.15;;
5225;SDS011;2632;51.666;7.146;2022-12-18T11:12:26;17.60;;;9.50;;
5225;SDS011;2632;51.666;7.146;2022-12-18T11:14:54;24.90;;;11.10;;
5225;SDS011;2632;51.666;7.146;2022-12-18T11:17:30;28.97;;;12.67;;
5225;SDS011;2632;51.666;7.146;2022-12-18T11:20:00;27.27;;;12.63;;
5225;SDS011;2632;51.666;7.146;2022-12-18T11:22:35;25.00;;;12.80;;
5225;SDS011;2632;51.666;7.146;2022-12-18T11:25:05;24.37;;;11.37;;
5225;SDS011;2632;51.666;7.146;2022-12-18T11:27:59;24.30;;;12.10;;
5225;SDS011;2632;51.666;7.146;2022-12-18T11:30:36;26.83;;;12.37;;
5225;SDS011;2632;51.666;7.146;2022-12-18T11:35:40;19.90;;;10.47;;
5225;SDS011;2632;51.666;7.146;2022-12-18T11:40:55;17.17;;;9.20;;
5225;SDS011;2632;51.666;7.146;2022-12-18T11:43:33;16.20;;;8.90;;
5225;SDS011;2632;51.666;7.146;2022-12-18T11:46:26;17.30;;;8.10;;
5225;SDS011;2632;51.666;7.146;2022-12-18T11:48:58;15.73;;;8.87;;
5225;SDS011;2632;51.666;7.146;2022-12-18T11:51:42;17.67;;;9.70;;
5225;SDS011;2632;51.666;7.146;2022-12-18T11:54:14;19.80;;;9.60;;
5225;SDS011;2632;51.666;7.146;2022-12-18T11:56:49;16.43;;;8.93;;
5225;SDS011;2632;51.666;7.146;2022-12-18T12:01:53;17.13;;;9.17;;
5225;SDS011;2632;51.666;7.146;2022-12-18T12:05:13;19.57;;;10.43;;
5225;SDS011;2632;51.666;7.146;2022-12-18T12:12:59;22.30;;;11.63;;
5225;SDS011;2632;51.666;7.146;2022-12-18T12:21:09;20.83;;;11.23;;
5225;SDS011;2632;51.666;7.146;2022-12-18T12:23:41;22.83;;;10.50;;
5225;SDS011;2632;51.666;7.146;2022-12-18T12:26:37;23.93;;;11.60;;
5225;SDS011;2632;51.666;7.146;2022-12-18T12:40:23;16.17;;;8.50;;
5225;SDS011;2632;51.666;7.146;2022-12-18T12:45:54;14.80;;;8.23;;
5225;SDS011;2632;51.666;7.146;2022-12-18T12:53:50;14.80;;;8.70;;
5225;SDS011;2632;51.666;7.146;2022-12-18T12:56:19;28.90;;;13.73;;
5225;SDS011;2632;51.666;7.146;2022-12-18T13:01:49;17.50;;;8.80;;
5225;SDS011;2632;51.666;7.146;2022-12-18T13:04:41;16.60;;;9.23;;
5225;SDS011;2632;51.666;7.146;2022-12-18T13:15:26;20.17;;;8.47;;
5225;SDS011;2632;51.666;7.146;2022-12-18T13:33:41;21.17;;;9.43;;
5225;SDS011;2632;51.666;7.146;2022-12-18T13:36:30;23.50;;;9.40;;
5225;SDS011;2632;51.666;7.146;2022-12-18T13:41:47;15.33;;;8.90;;
5225;SDS011;2632;51.666;7.146;2022-12-18T13:44:32;18.13;;;9.70;;
5225;SDS011;2632;51.666;7.146;2022-12-18T13:50:11;16.47;;;8.03;;
5225;SDS011;2632;51.666;7.146;2022-12-18T13:52:48;19.20;;;8.77;;
5225;SDS011;2632;51.666;7.146;2022-12-18T13:55:18;19.47;;;9.30;;
5225;SDS011;2632;51.666;7.146;2022-12-18T13:57:46;15.93;;;8.53;;
5225;SDS011;2632;51.666;7.146;2022-12-18T14:02:57;17.83;;;9.73;;
5225;SDS011;2632;51.666;7.146;2022-12-18T14:05:29;19.13;;;9.37;;
5225;SDS011;2632;51.666;7.146;2022-12-18T14:08:01;19.03;;;9.63;;
5225;SDS011;2632;51.666;7.146;2022-12-18T14:10:32;14.70;;;8.07;;
5225;SDS011;2632;51.666;7.146;2022-12-18T14:13:27;19.43;;;8.13;;
5225;SDS011;2632;51.666;7.146;2022-12-18T14:15:57;16.63;;;8.80;;
5225;SDS011;2632;51.666;7.146;2022-12-18T14:21:00;17.23;;;8.73;;
5225;SDS011;2632;51.666;7.146;2022-12-18T14:23:29;16.13;;;8.27;;
5225;SDS011;2632;51.666;7.146;2022-12-18T14:26:02;16.60;;;9.20;;
5225;SDS011;2632;51.666;7.146;2022-12-18T14:28:46;15.90;;;8.70;;
5225;SDS011;2632;51.666;7.146;2022-12-18T14:31:25;18.00;;;8.00;;
5225;SDS011;2632;51.666;7.146;2022-12-18T14:33:54;18.07;;;7.97;;
5225;SDS011;2632;51.666;7.146;2022-12-18T14:36:24;15.63;;;8.47;;
5225;SDS011;2632;51.666;7.146;2022-12-18T14:38:53;15.00;;;8.17;;
5225;SDS011;2632;51.666;7.146;2022-12-18T14:41:22;20.00;;;10.30;;
5225;SDS011;2632;51.666;7.146;2022-12-18T14:43:50;20.70;;;11.37;;
5225;SDS011;2632;51.666;7.146;2022-12-18T14:49:02;14.90;;;8.83;;
5225;SDS011;2632;51.666;7.146;2022-12-18T14:51:51;19.80;;;9.87;;
5225;SDS011;2632;51.666;7.146;2022-12-18T14:54:20;18.57;;;9.80;;
5225;SDS011;2632;51.666;7.146;2022-12-18T14:56:49;20.67;;;10.03;;
5225;SDS011;2632;51.666;7.146;2022-12-18T14:59:22;17.70;;;9.77;;
5225;SDS011;2632;51.666;7.146;2022-12-18T15:05:14;19.10;;;9.60;;
5225;SDS011;2632;51.666;7.146;2022-12-18T15:07:45;84.40;;;27.77;;
5225;SDS011;2632;51.666;7.146;2022-12-18T15:12:45;57.87;;;22.73;;
5225;SDS011;2632;51.666;7.146;2022-12-18T15:18:03;99.20;;;39.97;;
5225;SDS011;2632;51.666;7.146;2022-12-18T15:20:39;95.70;;;36.50;;
5225;SDS011;2632;51.666;7.146;2022-12-18T15:23:23;30.80;;;15.77;;
5225;SDS011;2632;51.666;7.146;2022-12-18T15:26:10;39.53;;;17.13;;
5225;SDS011;2632;51.666;7.146;2022-12-18T15:28:43;34.00;;;17.03;;
5225;SDS011;2632;51.666;7.146;2022-12-18T15:36:20;21.97;;;12.30;;
5225;SDS011;2632;51.666;7.146;2022-12-18T15:38:52;40.80;;;24.30;;
5225;SDS011;2632;51.666;7.146;2022-12-18T15:41:23;45.03;;;24.23;;
5225;SDS011;2632;51.666;7.146;2022-12-18T15:43:52;26.10;;;15.30;;
5225;SDS011;2632;51.666;7.146;2022-12-18T15:46:20;28.33;;;15.20;;
5225;SDS011;2632;51.666;7.146;2022-12-18T15:48:49;28.07;;;14.37;;
5225;SDS011;2632;51.666;7.146;2022-12-18T15:54:04;27.23;;;15.40;;
5225;SDS011;2632;51.666;7.146;2022-12-18T15:56:35;30.00;;;15.70;;
5225;SDS011;2632;51.666;7.146;2022-12-18T15:59:22;29.47;;;15.40;;
5225;SDS011;2632;51.666;7.146;2022-12-18T16:01:49;30.53;;;15.50;;
5225;SDS011;2632;51.666;7.146;2022-12-18T16:04:19;30.00;;;16.93;;
5225;SDS011;2632;51.666;7.146;2022-12-18T16:06:50;32.37;;;15.90;;
5225;SDS011;2632;51.666;7.146;2022-12-18T16:09:37;29.87;;;15.73;;
5225;SDS011;2632;51.666;7.146;2022-12-18T16:12:05;32.97;;;17.63;;
5225;SDS011;2632;51.666;7.146;2022-12-18T16:14:32;34.77;;;15.20;;
5225;SDS011;2632;51.666;7.146;2022-12-18T16:17:02;33.60;;;16.00;;
5225;SDS011;2632;51.666;7.146;2022-12-18T16:19:31;33.93;;;14.77;;
5225;SDS011;2632;51.666;7.146;2022-12-18T16:21:58;34.70;;;16.47;;
5225;SDS011;2632;51.666;7.146;2022-12-18T16:24:26;42.20;;;17.70;;
5225;SDS011;2632;51.666;7.146;2022-12-18T16:26:55;32.40;;;14.07;;
5225;SDS011;2632;51.666;7.146;2022-12-18T16:29:23;44.37;;;21.13;;
5225;SDS011;2632;51.666;7.146;2022-12-18T16:31:53;55.50;;;26.33;;
5225;SDS011;2632;51.666;7.146;2022-12-18T16:36:59;37.00;;;19.90;;
5225;SDS011;2632;51.666;7.146;2022-12-18T16:39:30;26.07;;;15.30;;
5225;SDS011;2632;51.666;7.146;2022-12-18T16:41:59;30.10;;;14.43;;
5225;SDS011;2632;51.666;7.146;2022-12-18T16:44:32;50.77;;;20.37;;
5225;SDS011;2632;51.666;7.146;2022-12-18T16:46:59;34.80;;;18.47;;
5225;SDS011;2632;51.666;7.146;2022-12-18T16:49:28;52.60;;;30.63;;
5225;SDS011;2632;51.666;7.146;2022-12-18T16:51:55;35.23;;;20.53;;
5225;SDS011;2632;51.666;7.146;2022-12-18T16:54:22;42.23;;;17.47;;
5225;SDS011;2632;51.666;7.146;2022-12-18T16:56:50;40.70;;;21.30;;
5225;SDS011;2632;51.666;7.146;2022-12-18T16:59:17;49.97;;;24.00;;
5225;SDS011;2632;51.666;7.146;2022-12-18T17:01:49;39.60;;;20.30;;
5225;SDS011;2632;51.666;7.146;2022-12-18T17:04:16;37.63;;;19.00;;
5225;SDS011;2632;51.666;7.146;2022-12-18T17:06:44;31.33;;;14.97;;
5225;SDS011;2632;51.666;7.146;2022-12-18T17:09:17;51.60;;;24.37;;
5225;SDS011;2632;51.666;7.146;2022-12-18T17:11:51;46.33;;;21.27;;
5225;SDS011;2632;51.666;7.146;2022-12-18T17:14:19;54.80;;;27.23;;
5225;SDS011;2632;51.666;7.146;2022-12-18T17:16:48;39.90;;;19.77;;
5225;SDS011;2632;51.666;7.146;2022-12-18T17:19:36;37.23;;;17.93;;
5225;SDS011;2632;51.666;7.146;2022-12-18T17:22:04;39.03;;;19.10;;
5225;SDS011;2632;51.666;7.146;2022-12-18T17:24:36;48.47;;;25.47;;
5225;SDS011;2632;51.666;7.146;2022-12-18T17:27:03;26.87;;;14.10;;
5225;SDS011;2632;51.666;7.146;2022-12-18T17:29:30;27.97;;;15.00;;
5225;SDS011;2632;51.666;7.146;2022-12-18T17:31:57;32.30;;;15.30;;
5225;SDS011;2632;51.666;7.146;2022-12-18T17:34:25;31.47;;;15.93;;
5225;SDS011;2632;51.666;7.146;2022-12-18T17:36:53;27.20;;;12.50;;
5225;SDS011;2632;51.666;7.146;2022-12-18T17:39:20;32.83;;;16.97;;
5225;SDS011;2632;51.666;7.146;2022-12-18T17:41:47;29.87;;;14.43;;